sensor_id;sensor_type;location;lat;lon;timestamp;P1;durP1;ratioP1;P2;durP2;ratioP2
74833;SDS011;63361;52.384;20.930;2023-03-01T00:01:07;69.67;;;25.87;;
74833;SDS011;63361;52.384;20.930;2023-03-01T00:03:34;66.20;;;24.85;;
74833;SDS011;63361;52.384;20.930;2023-03-01T00:05:59;68.47;;;23.63;;
74833;SDS011;63361;52.384;20.930;2023-03-01T00:08:26;61.90;;;24.17;;
74833;SDS011;63361;52.384;20.930;2023-03-01T00:11:03;75.65;;;28.23;;
74833;SDS011;63361;52.384;20.930;2023-03-01T00:13:39;60.10;;;23.45;;
74833;SDS011;63361;52.384;20.930;2023-03-01T00:16:06;53.63;;;22.48;;
74833;SDS011;63361;52.384;20.930;2023-03-01T00:18:33;56.30;;;22.53;;
74833;SDS011;63361;52.384;20.930;2023-03-01T00:20:59;63.15;;;26.45;;
74833;SDS011;63361;52.384;20.930;2023-03-01T00:23:25;63.17;;;25.83;;
74833;SDS011;63361;52.384;20.930;2023-03-01T00:25:51;58.88;;;24.83;;
74833;SDS011;63361;52.384;20.930;2023-03-01T00:28:17;57.85;;;22.90;;
74833;SDS011;63361;52.384;20.930;2023-03-01T00:30:43;78.45;;;29.15;;
74833;SDS011;63361;52.384;20.930;2023-03-01T00:33:09;66.37;;;27.43;;
74833;SDS011;63361;52.384;20.930;2023-03-01T00:35:35;71.65;;;28.60;;
74833;SDS011;63361;52.384;20.930;2023-03-01T00:38:01;59.53;;;25.23;;
74833;SDS011;63361;52.384;20.930;2023-03-01T00:40:27;65.15;;;24.27;;
74833;SDS011;63361;52.384;20.930;2023-03-01T00:42:53;60.42;;;24.15;;
74833;SDS011;63361;52.384;20.930;2023-03-01T00:45:19;59.73;;;24.30;;
74833;SDS011;63361;52.384;20.930;2023-03-01T00:47:44;59.70;;;23.42;;
74833;SDS011;63361;52.384;20.930;2023-03-01T00:50:10;61.40;;;23.50;;
74833;SDS011;63361;52.384;20.930;2023-03-01T00:52:36;50.00;;;20.37;;
74833;SDS011;63361;52.384;20.930;2023-03-01T00:55:02;46.17;;;20.50;;
74833;SDS011;63361;52.384;20.930;2023-03-01T00:57:29;49.47;;;19.52;;
74833;SDS011;63361;52.384;20.930;2023-03-01T00:59:54;55.20;;;20.40;;
74833;SDS011;63361;52.384;20.930;2023-03-01T01:02:19;53.73;;;22.80;;
74833;SDS011;63361;52.384;20.930;2023-03-01T01:04:45;55.78;;;21.92;;
74833;SDS011;63361;52.384;20.930;2023-03-01T01:07:11;58.93;;;21.70;;
74833;SDS011;63361;52.384;20.930;2023-03-01T01:09:37;48.70;;;20.60;;
74833;SDS011;63361;52.384;20.930;2023-03-01T01:12:02;48.80;;;19.13;;
74833;SDS011;63361;52.384;20.930;2023-03-01T01:14:28;44.63;;;19.30;;
74833;SDS011;63361;52.384;20.930;2023-03-01T01:16:54;52.03;;;21.37;;
74833;SDS011;63361;52.384;20.930;2023-03-01T01:19:19;51.80;;;20.53;;
74833;SDS011;63361;52.384;20.930;2023-03-01T01:21:45;57.08;;;20.88;;
74833;SDS011;63361;52.384;20.930;2023-03-01T01:24:11;59.90;;;20.37;;
74833;SDS011;63361;52.384;20.930;2023-03-01T01:26:37;55.95;;;21.67;;
74833;SDS011;63361;52.384;20.930;2023-03-01T01:29:03;49.50;;;22.10;;
74833;SDS011;63361;52.384;20.930;2023-03-01T01:31:29;54.55;;;21.45;;
74833;SDS011;63361;52.384;20.930;2023-03-01T01:33:55;48.70;;;20.73;;
74833;SDS011;63361;52.384;20.930;2023-03-01T01:36:21;53.65;;;22.45;;
74833;SDS011;63361;52.384;20.930;2023-03-01T01:38:47;55.67;;;23.13;;
74833;SDS011;63361;52.384;20.930;2023-03-01T01:41:13;49.30;;;20.87;;
74833;SDS011;63361;52.384;20.930;2023-03-01T01:43:47;45.45;;;20.13;;
74833;SDS011;63361;52.384;20.930;2023-03-01T01:46:32;47.05;;;19.77;;
74833;SDS011;63361;52.384;20.930;2023-03-01T01:49:02;46.15;;;19.92;;
74833;SDS011;63361;52.384;20.930;2023-03-01T01:51:36;46.67;;;21.07;;
74833;SDS011;63361;52.384;20.930;2023-03-01T01:54:08;55.60;;;22.73;;
74833;SDS011;63361;52.384;20.930;2023-03-01T01:56:37;51.50;;;20.77;;
74833;SDS011;63361;52.384;20.930;2023-03-01T01:59:06;43.53;;;19.80;;
74833;SDS011;63361;52.384;20.930;2023-03-01T02:01:31;51.23;;;21.30;;
74833;SDS011;63361;52.384;20.930;2023-03-01T02:03:57;46.90;;;20.33;;
74833;SDS011;63361;52.384;20.930;2023-03-01T02:06:28;42.08;;;19.42;;
74833;SDS011;63361;52.384;20.930;2023-03-01T02:08:57;51.38;;;19.20;;
74833;SDS011;63361;52.384;20.930;2023-03-01T02:11:28;48.28;;;19.55;;
74833;SDS011;63361;52.384;20.930;2023-03-01T02:13:55;47.43;;;20.07;;
74833;SDS011;63361;52.384;20.930;2023-03-01T02:16:20;55.13;;;21.25;;
74833;SDS011;63361;52.384;20.930;2023-03-01T02:18:46;51.93;;;20.17;;
74833;SDS011;63361;52.384;20.930;2023-03-01T02:24:08;47.73;;;20.03;;
74833;SDS011;63361;52.384;20.930;2023-03-01T02:26:47;49.20;;;20.40;;
74833;SDS011;63361;52.384;20.930;2023-03-01T02:29:15;49.88;;;19.90;;
74833;SDS011;63361;52.384;20.930;2023-03-01T02:31:40;55.77;;;22.10;;
74833;SDS011;63361;52.384;20.930;2023-03-01T02:34:21;54.33;;;21.52;;
74833;SDS011;63361;52.384;20.930;2023-03-01T02:36:57;50.10;;;21.80;;
74833;SDS011;63361;52.384;20.930;2023-03-01T02:39:26;62.63;;;22.77;;
74833;SDS011;63361;52.384;20.930;2023-03-01T02:41:56;60.40;;;22.30;;
74833;SDS011;63361;52.384;20.930;2023-03-01T02:44:23;52.10;;;23.67;;
74833;SDS011;63361;52.384;20.930;2023-03-01T02:46:51;49.97;;;21.63;;
74833;SDS011;63361;52.384;20.930;2023-03-01T02:49:36;57.00;;;21.63;;
74833;SDS011;63361;52.384;20.930;2023-03-01T02:54:40;54.90;;;20.05;;
74833;SDS011;63361;52.384;20.930;2023-03-01T02:57:12;54.08;;;20.83;;
74833;SDS011;63361;52.384;20.930;2023-03-01T02:59:37;52.93;;;19.50;;
74833;SDS011;63361;52.384;20.930;2023-03-01T03:02:08;45.90;;;20.05;;
74833;SDS011;63361;52.384;20.930;2023-03-01T03:04:45;49.28;;;22.02;;
74833;SDS011;63361;52.384;20.930;2023-03-01T03:07:11;48.78;;;20.77;;
74833;SDS011;63361;52.384;20.930;2023-03-01T03:09:37;46.77;;;21.20;;
74833;SDS011;63361;52.384;20.930;2023-03-01T03:12:02;59.50;;;23.40;;
74833;SDS011;63361;52.384;20.930;2023-03-01T03:14:28;50.40;;;21.38;;
74833;SDS011;63361;52.384;20.930;2023-03-01T03:16:53;47.60;;;21.00;;
74833;SDS011;63361;52.384;20.930;2023-03-01T03:19:19;51.20;;;20.27;;
74833;SDS011;63361;52.384;20.930;2023-03-01T03:21:44;49.85;;;21.10;;
74833;SDS011;63361;52.384;20.930;2023-03-01T03:24:10;49.50;;;20.87;;
74833;SDS011;63361;52.384;20.930;2023-03-01T03:26:36;46.17;;;19.30;;
74833;SDS011;63361;52.384;20.930;2023-03-01T03:29:02;51.50;;;19.60;;
74833;SDS011;63361;52.384;20.930;2023-03-01T03:31:27;49.30;;;21.57;;
74833;SDS011;63361;52.384;20.930;2023-03-01T03:33:53;49.83;;;20.35;;
74833;SDS011;63361;52.384;20.930;2023-03-01T03:36:20;47.80;;;20.87;;
74833;SDS011;63361;52.384;20.930;2023-03-01T03:38:47;50.95;;;20.85;;
74833;SDS011;63361;52.384;20.930;2023-03-01T03:41:13;51.22;;;20.67;;
74833;SDS011;63361;52.384;20.930;2023-03-01T03:43:40;54.65;;;21.75;;
74833;SDS011;63361;52.384;20.930;2023-03-01T03:46:07;45.53;;;19.30;;
74833;SDS011;63361;52.384;20.930;2023-03-01T03:48:36;47.92;;;19.98;;
74833;SDS011;63361;52.384;20.930;2023-03-01T03:51:03;47.20;;;19.80;;
74833;SDS011;63361;52.384;20.930;2023-03-01T03:53:30;45.78;;;21.25;;
74833;SDS011;63361;52.384;20.930;2023-03-01T03:55:56;63.33;;;21.37;;
74833;SDS011;63361;52.384;20.930;2023-03-01T03:58:22;50.20;;;21.52;;
74833;SDS011;63361;52.384;20.930;2023-03-01T04:00:50;69.25;;;24.45;;
74833;SDS011;63361;52.384;20.930;2023-03-01T04:03:18;69.93;;;24.23;;
74833;SDS011;63361;52.384;20.930;2023-03-01T04:05:45;55.58;;;22.25;;
74833;SDS011;63361;52.384;20.930;2023-03-01T04:08:11;68.43;;;24.90;;
74833;SDS011;63361;52.384;20.930;2023-03-01T04:10:37;65.60;;;23.47;;
74833;SDS011;63361;52.384;20.930;2023-03-01T04:13:04;55.40;;;22.80;;
74833;SDS011;63361;52.384;20.930;2023-03-01T04:15:30;56.20;;;20.50;;
74833;SDS011;63361;52.384;20.930;2023-03-01T04:17:57;48.88;;;20.40;;
74833;SDS011;63361;52.384;20.930;2023-03-01T04:20:25;50.93;;;19.93;;
74833;SDS011;63361;52.384;20.930;2023-03-01T04:23:03;45.95;;;21.27;;
74833;SDS011;63361;52.384;20.930;2023-03-01T04:25:59;45.80;;;20.33;;
74833;SDS011;63361;52.384;20.930;2023-03-01T04:28:25;51.60;;;19.98;;
74833;SDS011;63361;52.384;20.930;2023-03-01T04:31:01;52.80;;;20.38;;
74833;SDS011;63361;52.384;20.930;2023-03-01T04:33:38;51.37;;;18.77;;
74833;SDS011;63361;52.384;20.930;2023-03-01T04:36:04;55.60;;;20.95;;
74833;SDS011;63361;52.384;20.930;2023-03-01T04:38:30;56.45;;;22.75;;
74833;SDS011;63361;52.384;20.930;2023-03-01T04:40:55;62.30;;;21.17;;
74833;SDS011;63361;52.384;20.930;2023-03-01T04:43:21;51.83;;;20.87;;
74833;SDS011;63361;52.384;20.930;2023-03-01T04:45:46;53.05;;;20.65;;
74833;SDS011;63361;52.384;20.930;2023-03-01T04:48:11;54.63;;;22.00;;
74833;SDS011;63361;52.384;20.930;2023-03-01T04:50:37;48.40;;;19.77;;
74833;SDS011;63361;52.384;20.930;2023-03-01T04:53:02;43.37;;;18.63;;
74833;SDS011;63361;52.384;20.930;2023-03-01T04:55:28;43.90;;;19.57;;
74833;SDS011;63361;52.384;20.930;2023-03-01T04:57:54;45.45;;;18.77;;
74833;SDS011;63361;52.384;20.930;2023-03-01T05:00:20;42.70;;;18.77;;
74833;SDS011;63361;52.384;20.930;2023-03-01T05:02:50;50.53;;;19.55;;
74833;SDS011;63361;52.384;20.930;2023-03-01T05:05:18;44.13;;;18.17;;
74833;SDS011;63361;52.384;20.930;2023-03-01T05:07:45;41.92;;;17.90;;
74833;SDS011;63361;52.384;20.930;2023-03-01T05:10:10;48.00;;;18.07;;
74833;SDS011;63361;52.384;20.930;2023-03-01T05:12:36;43.10;;;18.30;;
74833;SDS011;63361;52.384;20.930;2023-03-01T05:15:02;48.50;;;17.83;;
74833;SDS011;63361;52.384;20.930;2023-03-01T05:17:31;38.50;;;17.80;;
74833;SDS011;63361;52.384;20.930;2023-03-01T05:19:57;46.80;;;19.03;;
74833;SDS011;63361;52.384;20.930;2023-03-01T05:22:24;42.92;;;18.83;;
74833;SDS011;63361;52.384;20.930;2023-03-01T05:24:50;51.92;;;19.38;;
74833;SDS011;63361;52.384;20.930;2023-03-01T05:27:15;47.20;;;17.03;;
74833;SDS011;63361;52.384;20.930;2023-03-01T05:29:40;48.07;;;18.73;;
74833;SDS011;63361;52.384;20.930;2023-03-01T05:32:05;50.00;;;19.80;;
74833;SDS011;63361;52.384;20.930;2023-03-01T05:34:32;44.33;;;18.80;;
74833;SDS011;63361;52.384;20.930;2023-03-01T05:37:00;41.97;;;17.88;;
74833;SDS011;63361;52.384;20.930;2023-03-01T05:39:26;42.73;;;18.10;;
74833;SDS011;63361;52.384;20.930;2023-03-01T05:41:54;47.65;;;19.17;;
74833;SDS011;63361;52.384;20.930;2023-03-01T05:44:20;49.10;;;19.33;;
74833;SDS011;63361;52.384;20.930;2023-03-01T05:46:46;47.47;;;18.53;;
74833;SDS011;63361;52.384;20.930;2023-03-01T05:49:11;46.50;;;20.07;;
74833;SDS011;63361;52.384;20.930;2023-03-01T05:51:38;45.17;;;17.80;;
74833;SDS011;63361;52.384;20.930;2023-03-01T05:54:04;40.20;;;18.02;;
74833;SDS011;63361;52.384;20.930;2023-03-01T05:56:31;50.90;;;18.10;;
74833;SDS011;63361;52.384;20.930;2023-03-01T05:58:57;46.83;;;18.13;;
74833;SDS011;63361;52.384;20.930;2023-03-01T06:01:23;44.03;;;19.43;;
74833;SDS011;63361;52.384;20.930;2023-03-01T06:03:48;39.70;;;18.30;;
74833;SDS011;63361;52.384;20.930;2023-03-01T06:06:13;106.40;;;39.77;;
74833;SDS011;63361;52.384;20.930;2023-03-01T06:08:39;128.80;;;58.90;;
74833;SDS011;63361;52.384;20.930;2023-03-01T06:11:04;59.57;;;26.20;;
74833;SDS011;63361;52.384;20.930;2023-03-01T06:13:30;58.28;;;21.60;;
74833;SDS011;63361;52.384;20.930;2023-03-01T06:15:55;49.13;;;20.90;;
74833;SDS011;63361;52.384;20.930;2023-03-01T06:18:20;47.70;;;19.90;;
74833;SDS011;63361;52.384;20.930;2023-03-01T06:20:51;42.67;;;18.47;;
74833;SDS011;63361;52.384;20.930;2023-03-01T06:23:18;53.20;;;20.92;;
74833;SDS011;63361;52.384;20.930;2023-03-01T06:25:43;52.50;;;18.50;;
74833;SDS011;63361;52.384;20.930;2023-03-01T06:28:09;47.83;;;19.33;;
74833;SDS011;63361;52.384;20.930;2023-03-01T06:30:34;44.33;;;18.87;;
74833;SDS011;63361;52.384;20.930;2023-03-01T06:33:00;55.28;;;20.55;;
74833;SDS011;63361;52.384;20.930;2023-03-01T06:35:28;43.10;;;19.48;;
74833;SDS011;63361;52.384;20.930;2023-03-01T06:37:55;49.20;;;20.27;;
74833;SDS011;63361;52.384;20.930;2023-03-01T06:40:20;49.85;;;19.50;;
74833;SDS011;63361;52.384;20.930;2023-03-01T06:42:47;50.13;;;19.80;;
74833;SDS011;63361;52.384;20.930;2023-03-01T06:45:20;44.00;;;18.50;;
74833;SDS011;63361;52.384;20.930;2023-03-01T06:47:46;47.72;;;20.50;;
74833;SDS011;63361;52.384;20.930;2023-03-01T06:50:11;50.65;;;19.60;;
74833;SDS011;63361;52.384;20.930;2023-03-01T06:52:37;43.57;;;19.10;;
74833;SDS011;63361;52.384;20.930;2023-03-01T06:55:03;46.55;;;19.30;;
74833;SDS011;63361;52.384;20.930;2023-03-01T06:57:28;47.27;;;19.20;;
74833;SDS011;63361;52.384;20.930;2023-03-01T06:59:54;50.03;;;20.23;;
74833;SDS011;63361;52.384;20.930;2023-03-01T07:02:19;56.40;;;23.27;;
74833;SDS011;63361;52.384;20.930;2023-03-01T07:04:45;49.20;;;21.33;;
74833;SDS011;63361;52.384;20.930;2023-03-01T07:07:10;48.90;;;19.60;;
74833;SDS011;63361;52.384;20.930;2023-03-01T07:09:35;52.57;;;26.13;;
74833;SDS011;63361;52.384;20.930;2023-03-01T07:12:01;42.80;;;19.77;;
74833;SDS011;63361;52.384;20.930;2023-03-01T07:14:26;40.87;;;18.37;;
74833;SDS011;63361;52.384;20.930;2023-03-01T07:16:53;50.43;;;20.70;;
74833;SDS011;63361;52.384;20.930;2023-03-01T07:19:19;41.93;;;18.47;;
74833;SDS011;63361;52.384;20.930;2023-03-01T07:21:45;40.50;;;17.85;;
74833;SDS011;63361;52.384;20.930;2023-03-01T07:24:10;44.88;;;19.13;;
74833;SDS011;63361;52.384;20.930;2023-03-01T07:26:36;38.33;;;17.43;;
74833;SDS011;63361;52.384;20.930;2023-03-01T07:29:03;44.42;;;18.92;;
74833;SDS011;63361;52.384;20.930;2023-03-01T07:31:29;40.10;;;16.67;;
74833;SDS011;63361;52.384;20.930;2023-03-01T07:33:55;38.10;;;17.55;;
74833;SDS011;63361;52.384;20.930;2023-03-01T07:36:21;44.10;;;17.42;;
74833;SDS011;63361;52.384;20.930;2023-03-01T07:38:46;36.43;;;17.13;;
74833;SDS011;63361;52.384;20.930;2023-03-01T07:41:12;40.17;;;17.23;;
74833;SDS011;63361;52.384;20.930;2023-03-01T07:43:37;37.23;;;16.53;;
74833;SDS011;63361;52.384;20.930;2023-03-01T07:46:03;44.40;;;21.00;;
74833;SDS011;63361;52.384;20.930;2023-03-01T07:48:29;48.75;;;21.65;;
74833;SDS011;63361;52.384;20.930;2023-03-01T07:51:02;59.95;;;34.47;;
74833;SDS011;63361;52.384;20.930;2023-03-01T07:53:29;37.42;;;16.38;;
74833;SDS011;63361;52.384;20.930;2023-03-01T07:56:03;36.60;;;16.07;;
74833;SDS011;63361;52.384;20.930;2023-03-01T07:58:36;34.63;;;15.40;;
74833;SDS011;63361;52.384;20.930;2023-03-01T08:01:03;37.92;;;16.15;;
74833;SDS011;63361;52.384;20.930;2023-03-01T08:03:30;35.33;;;15.85;;
74833;SDS011;63361;52.384;20.930;2023-03-01T08:05:55;37.47;;;17.20;;
74833;SDS011;63361;52.384;20.930;2023-03-01T08:08:21;42.40;;;17.97;;
74833;SDS011;63361;52.384;20.930;2023-03-01T08:10:46;36.27;;;18.30;;
74833;SDS011;63361;52.384;20.930;2023-03-01T08:13:11;37.73;;;16.67;;
74833;SDS011;63361;52.384;20.930;2023-03-01T08:15:37;36.20;;;17.30;;
74833;SDS011;63361;52.384;20.930;2023-03-01T08:18:02;38.47;;;15.70;;
74833;SDS011;63361;52.384;20.930;2023-03-01T08:20:27;34.37;;;15.83;;
74833;SDS011;63361;52.384;20.930;2023-03-01T08:22:53;33.70;;;15.97;;
74833;SDS011;63361;52.384;20.930;2023-03-01T08:25:18;30.40;;;15.43;;
74833;SDS011;63361;52.384;20.930;2023-03-01T08:27:43;31.10;;;15.93;;
74833;SDS011;63361;52.384;20.930;2023-03-01T08:30:09;34.47;;;16.13;;
74833;SDS011;63361;52.384;20.930;2023-03-01T08:32:35;36.53;;;16.20;;
74833;SDS011;63361;52.384;20.930;2023-03-01T08:35:03;35.45;;;16.52;;
74833;SDS011;63361;52.384;20.930;2023-03-01T08:37:28;32.47;;;15.80;;
74833;SDS011;63361;52.384;20.930;2023-03-01T08:39:55;34.70;;;15.95;;
74833;SDS011;63361;52.384;20.930;2023-03-01T08:42:21;35.00;;;16.77;;
74833;SDS011;63361;52.384;20.930;2023-03-01T08:44:46;33.13;;;15.82;;
74833;SDS011;63361;52.384;20.930;2023-03-01T08:47:11;31.50;;;16.10;;
74833;SDS011;63361;52.384;20.930;2023-03-01T08:49:37;34.70;;;16.17;;
74833;SDS011;63361;52.384;20.930;2023-03-01T08:52:02;32.97;;;14.77;;
74833;SDS011;63361;52.384;20.930;2023-03-01T08:54:28;28.00;;;14.23;;
74833;SDS011;63361;52.384;20.930;2023-03-01T08:56:53;34.30;;;15.00;;
74833;SDS011;63361;52.384;20.930;2023-03-01T08:59:19;30.17;;;13.60;;
74833;SDS011;63361;52.384;20.930;2023-03-01T09:01:44;31.67;;;13.77;;
74833;SDS011;63361;52.384;20.930;2023-03-01T09:04:10;28.40;;;14.25;;
74833;SDS011;63361;52.384;20.930;2023-03-01T09:06:37;28.13;;;13.40;;
74833;SDS011;63361;52.384;20.930;2023-03-01T09:09:03;31.02;;;14.05;;
74833;SDS011;63361;52.384;20.930;2023-03-01T09:11:29;26.93;;;13.27;;
74833;SDS011;63361;52.384;20.930;2023-03-01T09:13:55;31.88;;;14.57;;
74833;SDS011;63361;52.384;20.930;2023-03-01T09:16:21;29.53;;;14.20;;
74833;SDS011;63361;52.384;20.930;2023-03-01T09:18:51;29.00;;;13.48;;
74833;SDS011;63361;52.384;20.930;2023-03-01T09:21:18;29.15;;;13.50;;
74833;SDS011;63361;52.384;20.930;2023-03-01T09:23:46;28.90;;;12.88;;
74833;SDS011;63361;52.384;20.930;2023-03-01T09:26:16;31.27;;;13.60;;
74833;SDS011;63361;52.384;20.930;2023-03-01T09:28:46;30.75;;;14.88;;
74833;SDS011;63361;52.384;20.930;2023-03-01T09:31:13;35.38;;;15.40;;
74833;SDS011;63361;52.384;20.930;2023-03-01T09:33:40;33.63;;;16.50;;
74833;SDS011;63361;52.384;20.930;2023-03-01T09:36:07;38.03;;;19.30;;
74833;SDS011;63361;52.384;20.930;2023-03-01T09:38:36;34.67;;;17.00;;
74833;SDS011;63361;52.384;20.930;2023-03-01T09:41:01;34.47;;;16.23;;
74833;SDS011;63361;52.384;20.930;2023-03-01T09:45:55;36.65;;;16.35;;
74833;SDS011;63361;52.384;20.930;2023-03-01T09:48:27;48.05;;;20.17;;
74833;SDS011;63361;52.384;20.930;2023-03-01T09:51:02;50.47;;;22.00;;
74833;SDS011;63361;52.384;20.930;2023-03-01T09:53:33;33.13;;;16.70;;
74833;SDS011;63361;52.384;20.930;2023-03-01T09:59:37;39.10;;;17.25;;
74833;SDS011;63361;52.384;20.930;2023-03-01T10:05:12;33.00;;;15.27;;
74833;SDS011;63361;52.384;20.930;2023-03-01T10:07:54;27.10;;;14.13;;
74833;SDS011;63361;52.384;20.930;2023-03-01T10:10:32;29.88;;;15.35;;
74833;SDS011;63361;52.384;20.930;2023-03-01T10:13:08;33.30;;;17.33;;
74833;SDS011;63361;52.384;20.930;2023-03-01T10:15:44;34.42;;;15.32;;
74833;SDS011;63361;52.384;20.930;2023-03-01T10:18:16;26.13;;;12.48;;
74833;SDS011;63361;52.384;20.930;2023-03-01T10:20:57;29.57;;;15.30;;
74833;SDS011;63361;52.384;20.930;2023-03-01T10:23:25;27.35;;;12.68;;
74833;SDS011;63361;52.384;20.930;2023-03-01T10:31:04;28.05;;;13.43;;
74833;SDS011;63361;52.384;20.930;2023-03-01T10:33:35;26.03;;;11.77;;
74833;SDS011;63361;52.384;20.930;2023-03-01T10:36:04;26.77;;;11.82;;
74833;SDS011;63361;52.384;20.930;2023-03-01T10:38:31;28.77;;;12.52;;
74833;SDS011;63361;52.384;20.930;2023-03-01T10:41:12;25.73;;;12.00;;
74833;SDS011;63361;52.384;20.930;2023-03-01T10:43:51;28.00;;;11.80;;
74833;SDS011;63361;52.384;20.930;2023-03-01T10:46:37;24.05;;;11.13;;
74833;SDS011;63361;52.384;20.930;2023-03-01T10:51:32;24.83;;;12.00;;
74833;SDS011;63361;52.384;20.930;2023-03-01T10:53:58;19.77;;;11.02;;
74833;SDS011;63361;52.384;20.930;2023-03-01T10:56:23;25.27;;;11.37;;
74833;SDS011;63361;52.384;20.930;2023-03-01T11:03:54;25.47;;;11.37;;
74833;SDS011;63361;52.384;20.930;2023-03-01T11:06:30;19.93;;;11.07;;
74833;SDS011;63361;52.384;20.930;2023-03-01T11:08:56;25.05;;;11.82;;
74833;SDS011;63361;52.384;20.930;2023-03-01T11:14:12;23.40;;;11.63;;
74833;SDS011;63361;52.384;20.930;2023-03-01T11:16:47;24.67;;;12.55;;
74833;SDS011;63361;52.384;20.930;2023-03-01T11:19:22;24.08;;;12.35;;
74833;SDS011;63361;52.384;20.930;2023-03-01T11:21:55;27.03;;;13.63;;
74833;SDS011;63361;52.384;20.930;2023-03-01T11:24:59;25.92;;;12.43;;
74833;SDS011;63361;52.384;20.930;2023-03-01T11:27:29;24.50;;;11.40;;
74833;SDS011;63361;52.384;20.930;2023-03-01T11:32:42;24.20;;;12.50;;
74833;SDS011;63361;52.384;20.930;2023-03-01T11:35:20;22.87;;;11.77;;
74833;SDS011;63361;52.384;20.930;2023-03-01T11:54:51;25.60;;;12.60;;
74833;SDS011;63361;52.384;20.930;2023-03-01T12:03:17;27.47;;;14.70;;
74833;SDS011;63361;52.384;20.930;2023-03-01T12:06:06;25.77;;;13.10;;
74833;SDS011;63361;52.384;20.930;2023-03-01T12:08:48;25.55;;;13.15;;
74833;SDS011;63361;52.384;20.930;2023-03-01T12:11:38;28.67;;;13.43;;
74833;SDS011;63361;52.384;20.930;2023-03-01T12:16:59;24.87;;;13.37;;
74833;SDS011;63361;52.384;20.930;2023-03-01T12:22:58;27.08;;;13.63;;
74833;SDS011;63361;52.384;20.930;2023-03-01T12:39:42;29.80;;;13.93;;
74833;SDS011;63361;52.384;20.930;2023-03-01T12:42:51;23.63;;;13.40;;
74833;SDS011;63361;52.384;20.930;2023-03-01T12:45:44;24.57;;;13.03;;
74833;SDS011;63361;52.384;20.930;2023-03-01T12:48:20;23.30;;;13.60;;
74833;SDS011;63361;52.384;20.930;2023-03-01T12:50:57;26.25;;;13.43;;
74833;SDS011;63361;52.384;20.930;2023-03-01T12:53:27;27.48;;;14.05;;
74833;SDS011;63361;52.384;20.930;2023-03-01T12:55:57;20.92;;;11.85;;
74833;SDS011;63361;52.384;20.930;2023-03-01T12:58:37;29.63;;;15.60;;
74833;SDS011;63361;52.384;20.930;2023-03-01T13:01:26;25.10;;;13.57;;
74833;SDS011;63361;52.384;20.930;2023-03-01T13:04:06;29.27;;;15.27;;
74833;SDS011;63361;52.384;20.930;2023-03-01T13:11:43;21.77;;;12.03;;
74833;SDS011;63361;52.384;20.930;2023-03-01T13:16:50;22.40;;;12.17;;
74833;SDS011;63361;52.384;20.930;2023-03-01T13:19:17;26.05;;;13.10;;
74833;SDS011;63361;52.384;20.930;2023-03-01T13:21:45;25.17;;;12.35;;
74833;SDS011;63361;52.384;20.930;2023-03-01T13:24:45;22.75;;;13.13;;
74833;SDS011;63361;52.384;20.930;2023-03-01T13:29:48;22.23;;;11.67;;
74833;SDS011;63361;52.384;20.930;2023-03-01T13:32:28;23.52;;;11.05;;
74833;SDS011;63361;52.384;20.930;2023-03-01T13:34:59;21.42;;;10.15;;
74833;SDS011;63361;52.384;20.930;2023-03-01T13:37:47;20.48;;;10.02;;
74833;SDS011;63361;52.384;20.930;2023-03-01T13:42:46;21.20;;;10.55;;
74833;SDS011;63361;52.384;20.930;2023-03-01T13:48:14;23.40;;;12.05;;
74833;SDS011;63361;52.384;20.930;2023-03-01T13:50:47;20.00;;;10.27;;
74833;SDS011;63361;52.384;20.930;2023-03-01T13:53:21;19.83;;;10.55;;
74833;SDS011;63361;52.384;20.930;2023-03-01T13:55:55;19.80;;;10.23;;
74833;SDS011;63361;52.384;20.930;2023-03-01T13:58:27;17.50;;;9.97;;
74833;SDS011;63361;52.384;20.930;2023-03-01T14:00:58;19.30;;;10.77;;
74833;SDS011;63361;52.384;20.930;2023-03-01T14:03:23;20.20;;;11.32;;
74833;SDS011;63361;52.384;20.930;2023-03-01T14:06:09;20.73;;;11.20;;
74833;SDS011;63361;52.384;20.930;2023-03-01T14:08:38;19.95;;;11.40;;
74833;SDS011;63361;52.384;20.930;2023-03-01T14:16:22;20.98;;;10.10;;
74833;SDS011;63361;52.384;20.930;2023-03-01T14:22:02;20.30;;;10.68;;
74833;SDS011;63361;52.384;20.930;2023-03-01T14:24:29;20.25;;;10.90;;
74833;SDS011;63361;52.384;20.930;2023-03-01T14:26:58;20.50;;;10.75;;
74833;SDS011;63361;52.384;20.930;2023-03-01T14:32:11;20.80;;;10.77;;
74833;SDS011;63361;52.384;20.930;2023-03-01T14:34:42;24.13;;;12.40;;
74833;SDS011;63361;52.384;20.930;2023-03-01T14:37:31;22.35;;;11.60;;
74833;SDS011;63361;52.384;20.930;2023-03-01T14:39:59;22.05;;;11.73;;
74833;SDS011;63361;52.384;20.930;2023-03-01T14:42:30;23.33;;;12.90;;
74833;SDS011;63361;52.384;20.930;2023-03-01T14:45:00;22.33;;;10.90;;
74833;SDS011;63361;52.384;20.930;2023-03-01T14:49:55;25.07;;;13.07;;
74833;SDS011;63361;52.384;20.930;2023-03-01T14:52:37;26.08;;;13.00;;
74833;SDS011;63361;52.384;20.930;2023-03-01T14:55:13;22.23;;;12.63;;
74833;SDS011;63361;52.384;20.930;2023-03-01T14:57:46;22.80;;;12.85;;
74833;SDS011;63361;52.384;20.930;2023-03-01T15:02:47;23.98;;;12.88;;
74833;SDS011;63361;52.384;20.930;2023-03-01T15:05:15;23.83;;;12.60;;
74833;SDS011;63361;52.384;20.930;2023-03-01T15:07:45;22.48;;;12.68;;
74833;SDS011;63361;52.384;20.930;2023-03-01T15:13:24;29.77;;;13.47;;
74833;SDS011;63361;52.384;20.930;2023-03-01T15:15:53;25.27;;;13.65;;
74833;SDS011;63361;52.384;20.930;2023-03-01T15:18:33;25.25;;;13.68;;
74833;SDS011;63361;52.384;20.930;2023-03-01T15:21:07;29.08;;;14.07;;
74833;SDS011;63361;52.384;20.930;2023-03-01T15:23:40;30.60;;;16.33;;
74833;SDS011;63361;52.384;20.930;2023-03-01T15:26:06;26.67;;;14.07;;
74833;SDS011;63361;52.384;20.930;2023-03-01T15:29:03;27.10;;;14.80;;
74833;SDS011;63361;52.384;20.930;2023-03-01T15:31:32;26.77;;;14.83;;
74833;SDS011;63361;52.384;20.930;2023-03-01T15:36:51;29.15;;;15.30;;
74833;SDS011;63361;52.384;20.930;2023-03-01T15:39:27;27.08;;;15.07;;
74833;SDS011;63361;52.384;20.930;2023-03-01T15:42:02;32.22;;;15.77;;
74833;SDS011;63361;52.384;20.930;2023-03-01T15:44:31;34.43;;;16.30;;
74833;SDS011;63361;52.384;20.930;2023-03-01T15:46:59;26.27;;;14.52;;
74833;SDS011;63361;52.384;20.930;2023-03-01T15:52:05;30.15;;;15.15;;
74833;SDS011;63361;52.384;20.930;2023-03-01T15:54:36;34.83;;;17.17;;
74833;SDS011;63361;52.384;20.930;2023-03-01T15:57:05;37.40;;;17.57;;
74833;SDS011;63361;52.384;20.930;2023-03-01T15:59:33;35.53;;;17.23;;
74833;SDS011;63361;52.384;20.930;2023-03-01T16:01:58;37.90;;;18.77;;
74833;SDS011;63361;52.384;20.930;2023-03-01T16:04:24;35.93;;;18.10;;
74833;SDS011;63361;52.384;20.930;2023-03-01T16:06:50;36.65;;;17.00;;
74833;SDS011;63361;52.384;20.930;2023-03-01T16:09:20;42.77;;;19.07;;
74833;SDS011;63361;52.384;20.930;2023-03-01T16:11:50;47.70;;;19.98;;
74833;SDS011;63361;52.384;20.930;2023-03-01T16:14:16;46.53;;;20.25;;
74833;SDS011;63361;52.384;20.930;2023-03-01T16:16:42;40.97;;;22.07;;